Aviation Digital Data Service (ADDS)

Output produced by METARs form (2252 UTC 21 May 2022)
found at http://www.aviationweather.gov/metar/data/
 
GVAC 212200Z 04011KT 9999 SCT013 SCT200 22/17 Q1017 NOSIG
TAF GVAC 211700Z 2118/2224 03014KT 9999 SCT013
       
GVBA 211900Z 04013KT 9999 FEW014 24/18 Q1017 NOSIG
TAF GVBA 211100Z 2112/2218 01010KT 9999 BKN014 
     PROB40 2112/2118 SCT014
       
GVSV 212200Z 06013KT 9999 FEW020 BKN200 23/17 Q1017 NOSIG
TAF GVSV 211700Z 2118/2224 05014KT 9999 FEW022